sensor_id;sensor_type;location;lat;lon;timestamp;P1;durP1;ratioP1;P2;durP2;ratioP2
4508;SDS011;2267;48.816;9.230;2024-03-08T00:00:11;26.40;;;24.20;;
4508;SDS011;2267;48.816;9.230;2024-03-08T00:02:41;24.03;;;21.87;;
4508;SDS011;2267;48.816;9.230;2024-03-08T00:05:09;24.93;;;22.83;;
4508;SDS011;2267;48.816;9.230;2024-03-08T00:07:36;26.57;;;24.20;;
4508;SDS011;2267;48.816;9.230;2024-03-08T00:10:04;24.60;;;22.50;;
4508;SDS011;2267;48.816;9.230;2024-03-08T00:12:33;26.00;;;23.70;;
4508;SDS011;2267;48.816;9.230;2024-03-08T00:15:00;26.97;;;24.47;;
4508;SDS011;2267;48.816;9.230;2024-03-08T00:17:27;26.47;;;23.93;;
4508;SDS011;2267;48.816;9.230;2024-03-08T00:19:55;25.00;;;22.80;;
4508;SDS011;2267;48.816;9.230;2024-03-08T00:22:22;26.07;;;23.80;;
4508;SDS011;2267;48.816;9.230;2024-03-08T00:24:49;23.87;;;21.80;;
4508;SDS011;2267;48.816;9.230;2024-03-08T00:27:17;25.40;;;23.20;;
4508;SDS011;2267;48.816;9.230;2024-03-08T00:29:47;24.93;;;22.73;;
4508;SDS011;2267;48.816;9.230;2024-03-08T00:32:14;25.53;;;23.53;;
4508;SDS011;2267;48.816;9.230;2024-03-08T00:34:41;24.53;;;22.33;;
4508;SDS011;2267;48.816;9.230;2024-03-08T00:37:08;24.97;;;22.87;;
4508;SDS011;2267;48.816;9.230;2024-03-08T00:39:35;24.10;;;22.00;;
4508;SDS011;2267;48.816;9.230;2024-03-08T00:42:02;24.37;;;22.27;;
4508;SDS011;2267;48.816;9.230;2024-03-08T00:44:29;24.70;;;22.50;;
4508;SDS011;2267;48.816;9.230;2024-03-08T00:46:58;25.63;;;23.23;;
4508;SDS011;2267;48.816;9.230;2024-03-08T00:49:25;25.10;;;22.97;;
4508;SDS011;2267;48.816;9.230;2024-03-08T00:51:52;24.53;;;22.40;;
4508;SDS011;2267;48.816;9.230;2024-03-08T00:54:19;25.80;;;23.53;;
4508;SDS011;2267;48.816;9.230;2024-03-08T00:56:46;24.47;;;22.30;;
4508;SDS011;2267;48.816;9.230;2024-03-08T00:59:13;23.63;;;21.67;;
4508;SDS011;2267;48.816;9.230;2024-03-08T01:01:40;25.30;;;23.10;;
4508;SDS011;2267;48.816;9.230;2024-03-08T01:04:07;25.17;;;22.93;;
4508;SDS011;2267;48.816;9.230;2024-03-08T01:06:34;24.60;;;22.50;;
4508;SDS011;2267;48.816;9.230;2024-03-08T01:09:01;25.30;;;23.00;;
4508;SDS011;2267;48.816;9.230;2024-03-08T01:11:28;25.20;;;23.00;;
4508;SDS011;2267;48.816;9.230;2024-03-08T01:13:55;24.10;;;22.00;;
4508;SDS011;2267;48.816;9.230;2024-03-08T01:16:22;25.03;;;22.87;;
4508;SDS011;2267;48.816;9.230;2024-03-08T01:18:49;25.63;;;23.40;;
4508;SDS011;2267;48.816;9.230;2024-03-08T01:21:16;23.93;;;21.93;;
4508;SDS011;2267;48.816;9.230;2024-03-08T01:23:43;23.90;;;21.73;;
4508;SDS011;2267;48.816;9.230;2024-03-08T01:26:10;23.50;;;21.40;;
4508;SDS011;2267;48.816;9.230;2024-03-08T01:28:37;26.30;;;23.90;;
4508;SDS011;2267;48.816;9.230;2024-03-08T01:31:04;25.07;;;22.70;;
4508;SDS011;2267;48.816;9.230;2024-03-08T01:33:32;24.13;;;22.03;;
4508;SDS011;2267;48.816;9.230;2024-03-08T01:35:59;25.30;;;23.13;;
4508;SDS011;2267;48.816;9.230;2024-03-08T01:38:26;24.97;;;22.83;;
4508;SDS011;2267;48.816;9.230;2024-03-08T01:40:53;24.57;;;22.37;;
4508;SDS011;2267;48.816;9.230;2024-03-08T01:43:20;23.37;;;21.37;;
4508;SDS011;2267;48.816;9.230;2024-03-08T01:45:49;23.63;;;21.43;;
4508;SDS011;2267;48.816;9.230;2024-03-08T01:48:16;24.33;;;22.03;;
4508;SDS011;2267;48.816;9.230;2024-03-08T01:50:45;22.70;;;20.80;;
4508;SDS011;2267;48.816;9.230;2024-03-08T01:53:12;23.67;;;21.63;;
4508;SDS011;2267;48.816;9.230;2024-03-08T01:55:41;24.40;;;22.30;;
4508;SDS011;2267;48.816;9.230;2024-03-08T01:58:10;23.33;;;21.43;;
4508;SDS011;2267;48.816;9.230;2024-03-08T02:00:38;23.73;;;21.63;;
4508;SDS011;2267;48.816;9.230;2024-03-08T02:03:06;24.87;;;22.70;;
4508;SDS011;2267;48.816;9.230;2024-03-08T02:05:33;24.90;;;22.47;;
4508;SDS011;2267;48.816;9.230;2024-03-08T02:08:01;24.20;;;22.20;;
4508;SDS011;2267;48.816;9.230;2024-03-08T02:10:28;24.40;;;22.10;;
4508;SDS011;2267;48.816;9.230;2024-03-08T02:12:55;23.67;;;21.60;;
4508;SDS011;2267;48.816;9.230;2024-03-08T02:15:22;23.53;;;21.47;;
4508;SDS011;2267;48.816;9.230;2024-03-08T02:17:49;23.60;;;21.57;;
4508;SDS011;2267;48.816;9.230;2024-03-08T02:20:16;23.17;;;21.03;;
4508;SDS011;2267;48.816;9.230;2024-03-08T02:22:45;23.90;;;21.90;;
4508;SDS011;2267;48.816;9.230;2024-03-08T02:25:12;23.20;;;21.10;;
4508;SDS011;2267;48.816;9.230;2024-03-08T02:27:39;24.20;;;22.10;;
4508;SDS011;2267;48.816;9.230;2024-03-08T02:30:06;25.37;;;22.97;;
4508;SDS011;2267;48.816;9.230;2024-03-08T02:32:33;22.50;;;20.60;;
4508;SDS011;2267;48.816;9.230;2024-03-08T02:35:00;24.87;;;22.77;;
4508;SDS011;2267;48.816;9.230;2024-03-08T02:37:27;23.90;;;21.77;;
4508;SDS011;2267;48.816;9.230;2024-03-08T02:39:54;23.13;;;21.13;;
4508;SDS011;2267;48.816;9.230;2024-03-08T02:42:21;24.40;;;22.20;;
4508;SDS011;2267;48.816;9.230;2024-03-08T02:44:49;23.50;;;21.57;;
4508;SDS011;2267;48.816;9.230;2024-03-08T02:47:16;23.37;;;21.47;;
4508;SDS011;2267;48.816;9.230;2024-03-08T02:49:43;22.90;;;21.00;;
4508;SDS011;2267;48.816;9.230;2024-03-08T02:52:09;22.60;;;20.60;;
4508;SDS011;2267;48.816;9.230;2024-03-08T02:54:37;23.60;;;21.60;;
4508;SDS011;2267;48.816;9.230;2024-03-08T02:57:04;22.90;;;20.90;;
4508;SDS011;2267;48.816;9.230;2024-03-08T02:59:33;24.00;;;21.70;;
4508;SDS011;2267;48.816;9.230;2024-03-08T03:02:00;22.97;;;21.03;;
4508;SDS011;2267;48.816;9.230;2024-03-08T03:04:27;23.70;;;21.60;;
4508;SDS011;2267;48.816;9.230;2024-03-08T03:06:55;23.30;;;21.30;;
4508;SDS011;2267;48.816;9.230;2024-03-08T03:09:21;23.17;;;21.17;;
4508;SDS011;2267;48.816;9.230;2024-03-08T03:11:53;24.20;;;22.00;;
4508;SDS011;2267;48.816;9.230;2024-03-08T03:14:21;22.30;;;20.30;;
4508;SDS011;2267;48.816;9.230;2024-03-08T03:16:48;21.57;;;19.80;;
4508;SDS011;2267;48.816;9.230;2024-03-08T03:19:16;23.63;;;21.63;;
4508;SDS011;2267;48.816;9.230;2024-03-08T03:21:43;21.90;;;20.00;;
4508;SDS011;2267;48.816;9.230;2024-03-08T03:24:09;22.00;;;20.10;;
4508;SDS011;2267;48.816;9.230;2024-03-08T03:26:37;23.97;;;21.87;;
4508;SDS011;2267;48.816;9.230;2024-03-08T03:29:07;20.70;;;18.87;;
4508;SDS011;2267;48.816;9.230;2024-03-08T03:31:35;21.10;;;19.17;;
4508;SDS011;2267;48.816;9.230;2024-03-08T03:34:03;22.23;;;20.40;;
4508;SDS011;2267;48.816;9.230;2024-03-08T03:36:30;22.50;;;20.27;;
4508;SDS011;2267;48.816;9.230;2024-03-08T03:38:57;22.37;;;20.47;;
4508;SDS011;2267;48.816;9.230;2024-03-08T03:41:42;20.33;;;18.63;;
4508;SDS011;2267;48.816;9.230;2024-03-08T03:44:12;22.33;;;20.33;;
4508;SDS011;2267;48.816;9.230;2024-03-08T03:46:41;21.07;;;19.30;;
4508;SDS011;2267;48.816;9.230;2024-03-08T03:49:10;22.70;;;20.60;;
4508;SDS011;2267;48.816;9.230;2024-03-08T03:51:37;24.33;;;22.23;;
4508;SDS011;2267;48.816;9.230;2024-03-08T03:54:04;22.10;;;20.17;;
4508;SDS011;2267;48.816;9.230;2024-03-08T03:56:31;21.53;;;19.70;;
4508;SDS011;2267;48.816;9.230;2024-03-08T03:58:58;23.00;;;20.97;;
4508;SDS011;2267;48.816;9.230;2024-03-08T04:01:24;22.93;;;20.90;;
4508;SDS011;2267;48.816;9.230;2024-03-08T04:03:51;22.13;;;20.17;;
4508;SDS011;2267;48.816;9.230;2024-03-08T04:06:18;22.00;;;20.00;;
4508;SDS011;2267;48.816;9.230;2024-03-08T04:08:45;23.60;;;21.50;;
4508;SDS011;2267;48.816;9.230;2024-03-08T04:11:12;22.10;;;20.30;;
4508;SDS011;2267;48.816;9.230;2024-03-08T04:13:39;23.23;;;21.23;;
4508;SDS011;2267;48.816;9.230;2024-03-08T04:16:06;22.93;;;20.93;;
4508;SDS011;2267;48.816;9.230;2024-03-08T04:18:34;21.57;;;19.77;;
4508;SDS011;2267;48.816;9.230;2024-03-08T04:21:04;22.43;;;20.43;;
4508;SDS011;2267;48.816;9.230;2024-03-08T04:23:34;21.33;;;19.37;;
4508;SDS011;2267;48.816;9.230;2024-03-08T04:26:02;20.57;;;18.67;;
4508;SDS011;2267;48.816;9.230;2024-03-08T04:28:30;20.70;;;18.90;;
4508;SDS011;2267;48.816;9.230;2024-03-08T04:30:57;23.23;;;21.23;;
4508;SDS011;2267;48.816;9.230;2024-03-08T04:33:26;21.50;;;19.60;;
4508;SDS011;2267;48.816;9.230;2024-03-08T04:35:54;20.83;;;18.93;;
4508;SDS011;2267;48.816;9.230;2024-03-08T04:38:21;21.67;;;19.77;;
4508;SDS011;2267;48.816;9.230;2024-03-08T04:40:49;23.60;;;21.43;;
4508;SDS011;2267;48.816;9.230;2024-03-08T04:43:16;20.13;;;18.37;;
4508;SDS011;2267;48.816;9.230;2024-03-08T04:45:44;22.67;;;20.00;;
4508;SDS011;2267;48.816;9.230;2024-03-08T04:48:11;21.63;;;19.77;;
4508;SDS011;2267;48.816;9.230;2024-03-08T04:50:38;22.50;;;20.40;;
4508;SDS011;2267;48.816;9.230;2024-03-08T04:53:06;22.20;;;20.30;;
4508;SDS011;2267;48.816;9.230;2024-03-08T04:55:34;21.60;;;19.70;;
4508;SDS011;2267;48.816;9.230;2024-03-08T04:58:01;24.00;;;21.80;;
4508;SDS011;2267;48.816;9.230;2024-03-08T05:00:30;21.43;;;19.67;;
4508;SDS011;2267;48.816;9.230;2024-03-08T05:02:58;22.47;;;20.57;;
4508;SDS011;2267;48.816;9.230;2024-03-08T05:05:25;22.40;;;20.50;;
4508;SDS011;2267;48.816;9.230;2024-03-08T05:07:54;23.23;;;21.23;;
4508;SDS011;2267;48.816;9.230;2024-03-08T05:10:21;23.60;;;21.50;;
4508;SDS011;2267;48.816;9.230;2024-03-08T05:12:48;23.97;;;21.90;;
4508;SDS011;2267;48.816;9.230;2024-03-08T05:15:15;25.03;;;22.80;;
4508;SDS011;2267;48.816;9.230;2024-03-08T05:17:42;23.90;;;21.80;;
4508;SDS011;2267;48.816;9.230;2024-03-08T05:20:09;25.20;;;22.90;;
4508;SDS011;2267;48.816;9.230;2024-03-08T05:22:39;23.07;;;21.17;;
4508;SDS011;2267;48.816;9.230;2024-03-08T05:25:09;24.50;;;22.30;;
4508;SDS011;2267;48.816;9.230;2024-03-08T05:27:36;24.60;;;22.47;;
4508;SDS011;2267;48.816;9.230;2024-03-08T05:30:04;24.77;;;22.43;;
4508;SDS011;2267;48.816;9.230;2024-03-08T05:32:31;23.23;;;21.23;;
4508;SDS011;2267;48.816;9.230;2024-03-08T05:34:58;25.13;;;22.93;;
4508;SDS011;2267;48.816;9.230;2024-03-08T05:37:25;22.77;;;20.80;;
4508;SDS011;2267;48.816;9.230;2024-03-08T05:39:52;24.37;;;22.27;;
4508;SDS011;2267;48.816;9.230;2024-03-08T05:42:20;26.63;;;24.33;;
4508;SDS011;2267;48.816;9.230;2024-03-08T05:44:47;24.80;;;22.67;;
4508;SDS011;2267;48.816;9.230;2024-03-08T05:47:15;24.70;;;22.67;;
4508;SDS011;2267;48.816;9.230;2024-03-08T05:49:42;24.60;;;22.37;;
4508;SDS011;2267;48.816;9.230;2024-03-08T05:52:10;25.60;;;23.10;;
4508;SDS011;2267;48.816;9.230;2024-03-08T05:54:37;25.20;;;23.00;;
4508;SDS011;2267;48.816;9.230;2024-03-08T05:57:04;23.53;;;21.53;;
4508;SDS011;2267;48.816;9.230;2024-03-08T05:59:31;23.70;;;21.50;;
4508;SDS011;2267;48.816;9.230;2024-03-08T06:01:58;23.63;;;21.53;;
4508;SDS011;2267;48.816;9.230;2024-03-08T06:04:25;24.40;;;22.30;;
4508;SDS011;2267;48.816;9.230;2024-03-08T06:06:51;25.20;;;23.10;;
4508;SDS011;2267;48.816;9.230;2024-03-08T06:09:21;23.43;;;21.50;;
4508;SDS011;2267;48.816;9.230;2024-03-08T06:11:53;27.17;;;24.77;;
4508;SDS011;2267;48.816;9.230;2024-03-08T06:14:21;26.53;;;24.17;;
4508;SDS011;2267;48.816;9.230;2024-03-08T06:16:49;26.33;;;23.90;;
4508;SDS011;2267;48.816;9.230;2024-03-08T06:19:16;25.83;;;23.50;;
4508;SDS011;2267;48.816;9.230;2024-03-08T06:21:43;25.20;;;23.03;;
4508;SDS011;2267;48.816;9.230;2024-03-08T06:24:10;25.60;;;23.43;;
4508;SDS011;2267;48.816;9.230;2024-03-08T06:26:37;24.30;;;22.23;;
4508;SDS011;2267;48.816;9.230;2024-03-08T06:29:05;23.33;;;21.40;;
4508;SDS011;2267;48.816;9.230;2024-03-08T06:31:35;24.30;;;22.23;;
4508;SDS011;2267;48.816;9.230;2024-03-08T06:34:05;26.17;;;23.97;;
4508;SDS011;2267;48.816;9.230;2024-03-08T06:36:34;25.70;;;23.60;;
4508;SDS011;2267;48.816;9.230;2024-03-08T06:39:04;23.53;;;21.30;;
4508;SDS011;2267;48.816;9.230;2024-03-08T06:41:36;23.97;;;21.80;;
4508;SDS011;2267;48.816;9.230;2024-03-08T06:44:03;25.10;;;22.90;;
4508;SDS011;2267;48.816;9.230;2024-03-08T06:46:30;26.20;;;23.77;;
4508;SDS011;2267;48.816;9.230;2024-03-08T06:48:57;26.90;;;24.60;;
4508;SDS011;2267;48.816;9.230;2024-03-08T06:51:23;24.83;;;22.63;;
4508;SDS011;2267;48.816;9.230;2024-03-08T06:53:51;24.87;;;22.60;;
4508;SDS011;2267;48.816;9.230;2024-03-08T06:56:18;25.03;;;22.70;;
4508;SDS011;2267;48.816;9.230;2024-03-08T06:58:46;24.30;;;22.23;;
4508;SDS011;2267;48.816;9.230;2024-03-08T07:01:13;25.63;;;23.47;;
4508;SDS011;2267;48.816;9.230;2024-03-08T07:03:41;27.33;;;25.13;;
4508;SDS011;2267;48.816;9.230;2024-03-08T07:06:10;24.87;;;22.67;;
4508;SDS011;2267;48.816;9.230;2024-03-08T07:08:38;26.33;;;24.13;;
4508;SDS011;2267;48.816;9.230;2024-03-08T07:11:05;25.43;;;23.10;;
4508;SDS011;2267;48.816;9.230;2024-03-08T07:13:32;23.70;;;21.67;;
4508;SDS011;2267;48.816;9.230;2024-03-08T07:15:59;25.97;;;23.63;;
4508;SDS011;2267;48.816;9.230;2024-03-08T07:18:27;23.53;;;21.53;;
4508;SDS011;2267;48.816;9.230;2024-03-08T07:20:56;25.10;;;22.73;;
4508;SDS011;2267;48.816;9.230;2024-03-08T07:23:23;24.53;;;22.40;;
4508;SDS011;2267;48.816;9.230;2024-03-08T07:26:09;24.03;;;22.00;;
4508;SDS011;2267;48.816;9.230;2024-03-08T07:28:36;25.47;;;23.07;;
4508;SDS011;2267;48.816;9.230;2024-03-08T07:31:03;24.97;;;22.77;;
4508;SDS011;2267;48.816;9.230;2024-03-08T07:33:48;23.70;;;21.43;;
4508;SDS011;2267;48.816;9.230;2024-03-08T07:36:16;23.10;;;21.00;;
4508;SDS011;2267;48.816;9.230;2024-03-08T07:38:43;24.70;;;22.40;;
4508;SDS011;2267;48.816;9.230;2024-03-08T07:41:13;25.30;;;23.07;;
4508;SDS011;2267;48.816;9.230;2024-03-08T07:43:41;22.73;;;20.77;;
4508;SDS011;2267;48.816;9.230;2024-03-08T07:46:11;24.70;;;22.70;;
4508;SDS011;2267;48.816;9.230;2024-03-08T07:48:39;23.30;;;21.40;;
4508;SDS011;2267;48.816;9.230;2024-03-08T07:51:07;24.53;;;22.43;;
4508;SDS011;2267;48.816;9.230;2024-03-08T07:53:36;23.37;;;21.37;;
4508;SDS011;2267;48.816;9.230;2024-03-08T07:56:03;24.70;;;22.53;;
4508;SDS011;2267;48.816;9.230;2024-03-08T07:58:31;23.40;;;21.47;;
4508;SDS011;2267;48.816;9.230;2024-03-08T08:01:00;24.13;;;22.03;;
4508;SDS011;2267;48.816;9.230;2024-03-08T08:03:27;24.97;;;22.87;;
4508;SDS011;2267;48.816;9.230;2024-03-08T08:05:54;25.00;;;22.80;;
4508;SDS011;2267;48.816;9.230;2024-03-08T08:08:21;23.37;;;21.37;;
4508;SDS011;2267;48.816;9.230;2024-03-08T08:10:47;24.07;;;21.90;;
4508;SDS011;2267;48.816;9.230;2024-03-08T08:13:15;24.37;;;22.23;;
4508;SDS011;2267;48.816;9.230;2024-03-08T08:15:44;25.50;;;23.20;;
4508;SDS011;2267;48.816;9.230;2024-03-08T08:18:12;26.03;;;23.73;;
4508;SDS011;2267;48.816;9.230;2024-03-08T08:20:40;23.83;;;21.63;;
4508;SDS011;2267;48.816;9.230;2024-03-08T08:23:07;24.13;;;21.93;;
4508;SDS011;2267;48.816;9.230;2024-03-08T08:25:35;24.57;;;22.37;;
4508;SDS011;2267;48.816;9.230;2024-03-08T08:28:02;24.23;;;22.10;;
4508;SDS011;2267;48.816;9.230;2024-03-08T08:30:30;24.37;;;22.10;;
4508;SDS011;2267;48.816;9.230;2024-03-08T08:32:59;24.43;;;22.13;;
4508;SDS011;2267;48.816;9.230;2024-03-08T08:35:27;23.43;;;21.30;;
4508;SDS011;2267;48.816;9.230;2024-03-08T08:37:55;23.80;;;21.60;;
4508;SDS011;2267;48.816;9.230;2024-03-08T08:40:22;24.03;;;21.97;;
4508;SDS011;2267;48.816;9.230;2024-03-08T08:42:50;24.77;;;22.53;;
4508;SDS011;2267;48.816;9.230;2024-03-08T08:45:19;24.23;;;22.13;;
4508;SDS011;2267;48.816;9.230;2024-03-08T08:47:51;27.13;;;24.63;;
4508;SDS011;2267;48.816;9.230;2024-03-08T08:50:19;23.77;;;21.67;;
4508;SDS011;2267;48.816;9.230;2024-03-08T08:52:49;24.60;;;22.40;;
4508;SDS011;2267;48.816;9.230;2024-03-08T08:55:16;23.20;;;21.00;;
4508;SDS011;2267;48.816;9.230;2024-03-08T08:57:47;22.83;;;20.87;;
4508;SDS011;2267;48.816;9.230;2024-03-08T09:00:15;23.73;;;21.63;;
4508;SDS011;2267;48.816;9.230;2024-03-08T09:02:42;22.57;;;20.47;;
4508;SDS011;2267;48.816;9.230;2024-03-08T09:05:10;22.90;;;20.80;;
4508;SDS011;2267;48.816;9.230;2024-03-08T09:07:43;24.97;;;22.77;;
4508;SDS011;2267;48.816;9.230;2024-03-08T09:10:13;23.10;;;21.00;;
4508;SDS011;2267;48.816;9.230;2024-03-08T09:12:43;25.47;;;23.07;;
4508;SDS011;2267;48.816;9.230;2024-03-08T09:15:10;23.30;;;21.10;;
4508;SDS011;2267;48.816;9.230;2024-03-08T09:17:38;23.30;;;21.20;;
4508;SDS011;2267;48.816;9.230;2024-03-08T09:20:06;22.73;;;20.63;;
4508;SDS011;2267;48.816;9.230;2024-03-08T09:22:35;22.50;;;20.47;;
4508;SDS011;2267;48.816;9.230;2024-03-08T09:25:02;22.73;;;20.63;;
4508;SDS011;2267;48.816;9.230;2024-03-08T09:27:31;24.20;;;21.97;;
4508;SDS011;2267;48.816;9.230;2024-03-08T09:29:58;23.13;;;21.13;;
4508;SDS011;2267;48.816;9.230;2024-03-08T09:32:25;22.57;;;20.57;;
4508;SDS011;2267;48.816;9.230;2024-03-08T09:34:52;21.40;;;19.40;;
4508;SDS011;2267;48.816;9.230;2024-03-08T09:37:20;22.50;;;20.50;;
4508;SDS011;2267;48.816;9.230;2024-03-08T09:39:47;21.90;;;20.00;;
4508;SDS011;2267;48.816;9.230;2024-03-08T09:42:15;22.93;;;20.90;;
4508;SDS011;2267;48.816;9.230;2024-03-08T09:44:46;24.33;;;22.13;;
4508;SDS011;2267;48.816;9.230;2024-03-08T09:47:13;22.40;;;20.30;;
4508;SDS011;2267;48.816;9.230;2024-03-08T09:49:41;23.60;;;21.47;;
4508;SDS011;2267;48.816;9.230;2024-03-08T09:52:10;20.73;;;18.83;;
4508;SDS011;2267;48.816;9.230;2024-03-08T09:54:38;20.70;;;18.90;;
4508;SDS011;2267;48.816;9.230;2024-03-08T09:57:09;23.90;;;21.80;;
4508;SDS011;2267;48.816;9.230;2024-03-08T09:59:37;23.53;;;21.40;;
4508;SDS011;2267;48.816;9.230;2024-03-08T10:02:04;24.27;;;22.17;;
4508;SDS011;2267;48.816;9.230;2024-03-08T10:04:31;23.50;;;21.30;;
4508;SDS011;2267;48.816;9.230;2024-03-08T10:07:00;23.80;;;21.60;;
4508;SDS011;2267;48.816;9.230;2024-03-08T10:09:28;22.97;;;20.87;;
4508;SDS011;2267;48.816;9.230;2024-03-08T10:11:58;22.30;;;20.27;;
4508;SDS011;2267;48.816;9.230;2024-03-08T10:14:25;22.80;;;20.80;;
4508;SDS011;2267;48.816;9.230;2024-03-08T10:16:53;20.90;;;18.97;;
4508;SDS011;2267;48.816;9.230;2024-03-08T10:19:20;21.37;;;19.37;;
4508;SDS011;2267;48.816;9.230;2024-03-08T10:21:51;22.60;;;20.60;;
4508;SDS011;2267;48.816;9.230;2024-03-08T10:24:22;24.13;;;21.97;;
4508;SDS011;2267;48.816;9.230;2024-03-08T10:26:53;25.30;;;23.10;;
4508;SDS011;2267;48.816;9.230;2024-03-08T10:29:26;22.37;;;20.10;;
4508;SDS011;2267;48.816;9.230;2024-03-08T10:31:54;23.07;;;21.00;;
4508;SDS011;2267;48.816;9.230;2024-03-08T10:34:22;22.63;;;20.43;;
4508;SDS011;2267;48.816;9.230;2024-03-08T10:36:50;23.43;;;21.23;;
4508;SDS011;2267;48.816;9.230;2024-03-08T10:39:21;22.47;;;20.43;;
4508;SDS011;2267;48.816;9.230;2024-03-08T10:41:56;23.20;;;21.00;;
4508;SDS011;2267;48.816;9.230;2024-03-08T10:47:02;23.13;;;21.00;;
4508;SDS011;2267;48.816;9.230;2024-03-08T10:49:51;23.97;;;21.77;;
4508;SDS011;2267;48.816;9.230;2024-03-08T10:52:21;25.20;;;22.80;;
4508;SDS011;2267;48.816;9.230;2024-03-08T10:54:49;24.20;;;22.00;;
4508;SDS011;2267;48.816;9.230;2024-03-08T10:57:18;23.90;;;21.90;;
4508;SDS011;2267;48.816;9.230;2024-03-08T10:59:47;24.73;;;22.47;;
4508;SDS011;2267;48.816;9.230;2024-03-08T11:02:16;21.57;;;19.50;;
4508;SDS011;2267;48.816;9.230;2024-03-08T11:04:49;24.67;;;22.20;;
4508;SDS011;2267;48.816;9.230;2024-03-08T11:07:17;24.47;;;22.27;;
4508;SDS011;2267;48.816;9.230;2024-03-08T11:09:49;25.47;;;23.07;;
4508;SDS011;2267;48.816;9.230;2024-03-08T11:12:26;25.63;;;23.43;;
4508;SDS011;2267;48.816;9.230;2024-03-08T11:14:59;24.80;;;22.60;;
4508;SDS011;2267;48.816;9.230;2024-03-08T11:19:57;23.70;;;21.53;;
4508;SDS011;2267;48.816;9.230;2024-03-08T11:22:28;24.10;;;21.80;;
4508;SDS011;2267;48.816;9.230;2024-03-08T11:25:02;24.03;;;21.80;;
4508;SDS011;2267;48.816;9.230;2024-03-08T11:27:38;25.13;;;22.63;;
4508;SDS011;2267;48.816;9.230;2024-03-08T11:30:05;22.90;;;20.70;;
4508;SDS011;2267;48.816;9.230;2024-03-08T11:32:47;23.53;;;21.37;;
4508;SDS011;2267;48.816;9.230;2024-03-08T11:35:18;23.10;;;20.97;;
4508;SDS011;2267;48.816;9.230;2024-03-08T11:37:46;23.50;;;21.40;;
4508;SDS011;2267;48.816;9.230;2024-03-08T11:40:15;23.27;;;21.17;;
4508;SDS011;2267;48.816;9.230;2024-03-08T11:42:46;22.17;;;20.20;;
4508;SDS011;2267;48.816;9.230;2024-03-08T11:45:15;21.93;;;19.83;;
4508;SDS011;2267;48.816;9.230;2024-03-08T11:47:44;23.67;;;21.40;;
4508;SDS011;2267;48.816;9.230;2024-03-08T11:50:15;22.07;;;20.00;;
4508;SDS011;2267;48.816;9.230;2024-03-08T11:52:43;24.10;;;21.80;;
4508;SDS011;2267;48.816;9.230;2024-03-08T11:55:10;23.77;;;21.50;;
4508;SDS011;2267;48.816;9.230;2024-03-08T11:57:39;21.33;;;19.43;;
4508;SDS011;2267;48.816;9.230;2024-03-08T12:00:14;21.33;;;19.43;;
4508;SDS011;2267;48.816;9.230;2024-03-08T12:03:02;20.87;;;18.97;;
4508;SDS011;2267;48.816;9.230;2024-03-08T12:05:33;22.10;;;20.10;;
4508;SDS011;2267;48.816;9.230;2024-03-08T12:08:03;23.63;;;21.53;;
4508;SDS011;2267;48.816;9.230;2024-03-08T12:10:33;21.37;;;19.47;;
4508;SDS011;2267;48.816;9.230;2024-03-08T12:13:01;23.17;;;20.70;;
4508;SDS011;2267;48.816;9.230;2024-03-08T12:15:37;24.23;;;22.13;;
4508;SDS011;2267;48.816;9.230;2024-03-08T12:18:05;24.10;;;21.90;;
4508;SDS011;2267;48.816;9.230;2024-03-08T12:20:33;23.30;;;21.30;;
4508;SDS011;2267;48.816;9.230;2024-03-08T12:23:00;24.00;;;21.80;;
4508;SDS011;2267;48.816;9.230;2024-03-08T12:25:29;23.90;;;21.77;;
4508;SDS011;2267;48.816;9.230;2024-03-08T12:28:08;22.07;;;19.97;;
4508;SDS011;2267;48.816;9.230;2024-03-08T12:30:45;24.40;;;22.20;;
4508;SDS011;2267;48.816;9.230;2024-03-08T12:33:20;21.73;;;19.77;;
4508;SDS011;2267;48.816;9.230;2024-03-08T12:35:52;22.40;;;20.40;;
4508;SDS011;2267;48.816;9.230;2024-03-08T12:38:27;21.90;;;20.00;;
4508;SDS011;2267;48.816;9.230;2024-03-08T12:40:55;21.53;;;19.63;;
4508;SDS011;2267;48.816;9.230;2024-03-08T12:43:23;23.27;;;21.17;;
4508;SDS011;2267;48.816;9.230;2024-03-08T12:45:50;23.90;;;21.80;;
4508;SDS011;2267;48.816;9.230;2024-03-08T12:48:19;22.80;;;20.70;;
4508;SDS011;2267;48.816;9.230;2024-03-08T12:50:47;23.90;;;21.70;;
4508;SDS011;2267;48.816;9.230;2024-03-08T12:53:14;24.10;;;21.80;;
4508;SDS011;2267;48.816;9.230;2024-03-08T12:55:41;22.73;;;20.70;;
4508;SDS011;2267;48.816;9.230;2024-03-08T12:58:08;23.43;;;21.33;;
4508;SDS011;2267;48.816;9.230;2024-03-08T13:00:35;22.97;;;20.73;;
4508;SDS011;2267;48.816;9.230;2024-03-08T13:03:03;22.40;;;20.30;;
4508;SDS011;2267;48.816;9.230;2024-03-08T13:05:30;22.50;;;20.60;;
4508;SDS011;2267;48.816;9.230;2024-03-08T13:07:57;20.77;;;18.87;;
4508;SDS011;2267;48.816;9.230;2024-03-08T13:10:24;22.87;;;20.77;;
4508;SDS011;2267;48.816;9.230;2024-03-08T13:12:51;24.07;;;21.80;;
4508;SDS011;2267;48.816;9.230;2024-03-08T13:15:20;21.90;;;19.80;;
4508;SDS011;2267;48.816;9.230;2024-03-08T13:17:47;22.00;;;20.00;;
4508;SDS011;2267;48.816;9.230;2024-03-08T13:20:15;21.80;;;19.90;;
4508;SDS011;2267;48.816;9.230;2024-03-08T13:22:56;22.60;;;20.60;;
4508;SDS011;2267;48.816;9.230;2024-03-08T13:25:25;23.80;;;21.70;;
4508;SDS011;2267;48.816;9.230;2024-03-08T13:27:52;21.93;;;19.80;;
4508;SDS011;2267;48.816;9.230;2024-03-08T13:30:25;21.30;;;19.30;;
4508;SDS011;2267;48.816;9.230;2024-03-08T13:32:52;20.90;;;18.80;;
4508;SDS011;2267;48.816;9.230;2024-03-08T13:35:23;21.57;;;19.67;;
4508;SDS011;2267;48.816;9.230;2024-03-08T13:37:54;22.90;;;20.90;;
4508;SDS011;2267;48.816;9.230;2024-03-08T13:40:22;23.50;;;21.40;;
4508;SDS011;2267;48.816;9.230;2024-03-08T13:42:49;21.53;;;19.50;;
4508;SDS011;2267;48.816;9.230;2024-03-08T13:45:16;20.93;;;19.13;;
4508;SDS011;2267;48.816;9.230;2024-03-08T13:47:50;21.67;;;19.67;;
4508;SDS011;2267;48.816;9.230;2024-03-08T13:50:18;23.20;;;21.10;;
4508;SDS011;2267;48.816;9.230;2024-03-08T13:52:48;22.03;;;20.10;;
4508;SDS011;2267;48.816;9.230;2024-03-08T13:55:21;20.53;;;18.53;;
4508;SDS011;2267;48.816;9.230;2024-03-08T13:57:50;20.70;;;18.80;;
4508;SDS011;2267;48.816;9.230;2024-03-08T14:00:18;21.03;;;19.20;;
4508;SDS011;2267;48.816;9.230;2024-03-08T14:02:49;21.73;;;19.70;;
4508;SDS011;2267;48.816;9.230;2024-03-08T14:05:16;22.37;;;20.27;;
4508;SDS011;2267;48.816;9.230;2024-03-08T14:07:44;24.53;;;22.27;;
4508;SDS011;2267;48.816;9.230;2024-03-08T14:10:15;20.17;;;18.40;;
4508;SDS011;2267;48.816;9.230;2024-03-08T14:12:42;21.90;;;20.10;;
4508;SDS011;2267;48.816;9.230;2024-03-08T14:15:10;21.50;;;19.70;;
4508;SDS011;2267;48.816;9.230;2024-03-08T14:17:38;21.67;;;19.77;;
4508;SDS011;2267;48.816;9.230;2024-03-08T14:20:06;21.23;;;19.43;;
4508;SDS011;2267;48.816;9.230;2024-03-08T14:22:34;21.80;;;19.80;;
4508;SDS011;2267;48.816;9.230;2024-03-08T14:25:01;21.20;;;19.30;;
4508;SDS011;2267;48.816;9.230;2024-03-08T14:27:31;19.97;;;18.17;;
4508;SDS011;2267;48.816;9.230;2024-03-08T14:29:59;21.70;;;19.80;;
4508;SDS011;2267;48.816;9.230;2024-03-08T14:32:26;23.20;;;21.17;;
4508;SDS011;2267;48.816;9.230;2024-03-08T14:34:55;22.17;;;20.17;;
4508;SDS011;2267;48.816;9.230;2024-03-08T14:37:22;20.13;;;18.23;;
4508;SDS011;2267;48.816;9.230;2024-03-08T14:39:54;21.67;;;19.77;;
4508;SDS011;2267;48.816;9.230;2024-03-08T14:42:22;20.50;;;18.70;;
4508;SDS011;2267;48.816;9.230;2024-03-08T14:44:50;23.17;;;21.20;;
4508;SDS011;2267;48.816;9.230;2024-03-08T14:47:20;20.57;;;18.50;;
4508;SDS011;2267;48.816;9.230;2024-03-08T14:49:48;23.17;;;21.17;;
4508;SDS011;2267;48.816;9.230;2024-03-08T14:52:15;22.17;;;20.17;;
4508;SDS011;2267;48.816;9.230;2024-03-08T14:54:55;22.13;;;20.13;;
4508;SDS011;2267;48.816;9.230;2024-03-08T14:57:22;20.80;;;19.00;;
4508;SDS011;2267;48.816;9.230;2024-03-08T14:59:49;21.00;;;19.07;;